sensor_id;sensor_type;location;lat;lon;timestamp;pressure;altitude;pressure_sealevel;temperature;humidity
36726;BME280;44936;52.086;5.150;2022-10-13T00:00:17;98515.31;;;11.02;100.00
36726;BME280;44936;52.086;5.150;2022-10-13T00:02:43;98490.19;;;10.96;100.00
36726;BME280;44936;52.086;5.150;2022-10-13T00:05:08;98541.59;;;11.25;100.00
36726;BME280;44936;52.086;5.150;2022-10-13T00:07:34;98496.03;;;11.04;100.00
36726;BME280;44936;52.086;5.150;2022-10-13T00:09:59;98513.47;;;11.29;100.00
36726;BME280;44936;52.086;5.150;2022-10-13T00:12:28;98493.56;;;11.23;100.00
36726;BME280;44936;52.086;5.150;2022-10-13T00:14:53;98487.13;;;11.32;100.00
36726;BME280;44936;52.086;5.150;2022-10-13T00:17:19;98454.50;;;11.16;100.00
36726;BME280;44936;52.086;5.150;2022-10-13T00:19:44;98450.03;;;11.18;100.00
36726;BME280;44936;52.086;5.150;2022-10-13T00:22:10;98423.38;;;11.06;100.00
36726;BME280;44936;52.086;5.150;2022-10-13T00:24:35;98446.28;;;11.25;100.00
36726;BME280;44936;52.086;5.150;2022-10-13T00:27:00;98482.53;;;11.37;100.00
36726;BME280;44936;52.086;5.150;2022-10-13T00:29:29;98476.44;;;11.37;100.00
36726;BME280;44936;52.086;5.150;2022-10-13T00:31:54;98434.66;;;11.09;100.00
36726;BME280;44936;52.086;5.150;2022-10-13T00:34:20;98473.44;;;11.24;100.00
36726;BME280;44936;52.086;5.150;2022-10-13T00:36:46;98467.72;;;11.13;100.00
36726;BME280;44936;52.086;5.150;2022-10-13T00:39:12;98491.81;;;11.24;100.00
36726;BME280;44936;52.086;5.150;2022-10-13T00:41:37;98534.56;;;11.26;100.00
36726;BME280;44936;52.086;5.150;2022-10-13T00:44:04;98582.84;;;11.45;100.00
36726;BME280;44936;52.086;5.150;2022-10-13T00:46:35;98588.31;;;11.39;100.00
36726;BME280;44936;52.086;5.150;2022-10-13T00:49:06;98592.63;;;11.42;100.00
36726;BME280;44936;52.086;5.150;2022-10-13T00:51:43;98563.38;;;11.27;100.00
36726;BME280;44936;52.086;5.150;2022-10-13T00:54:13;98606.28;;;11.51;100.00
36726;BME280;44936;52.086;5.150;2022-10-13T00:56:41;98605.56;;;11.46;100.00
36726;BME280;44936;52.086;5.150;2022-10-13T00:59:21;98585.09;;;11.32;100.00
36726;BME280;44936;52.086;5.150;2022-10-13T01:01:50;98585.81;;;11.36;100.00
36726;BME280;44936;52.086;5.150;2022-10-13T01:04:18;98593.00;;;11.31;100.00
36726;BME280;44936;52.086;5.150;2022-10-13T01:06:47;98614.16;;;11.26;100.00
36726;BME280;44936;52.086;5.150;2022-10-13T01:09:12;98651.22;;;11.42;100.00
36726;BME280;44936;52.086;5.150;2022-10-13T01:14:41;98738.22;;;11.56;100.00
36726;BME280;44936;52.086;5.150;2022-10-13T01:17:17;98765.44;;;11.54;100.00
36726;BME280;44936;52.086;5.150;2022-10-13T01:29:29;98824.59;;;11.64;100.00
36726;BME280;44936;52.086;5.150;2022-10-13T01:32:13;98808.31;;;11.54;100.00
36726;BME280;44936;52.086;5.150;2022-10-13T01:34:51;98822.63;;;11.71;100.00
36726;BME280;44936;52.086;5.150;2022-10-13T01:40:57;98805.31;;;11.65;100.00
36726;BME280;44936;52.086;5.150;2022-10-13T01:43:37;98829.47;;;11.76;100.00
36726;BME280;44936;52.086;5.150;2022-10-13T01:48:42;98833.34;;;11.64;100.00
36726;BME280;44936;52.086;5.150;2022-10-13T01:51:14;98869.56;;;11.81;100.00
36726;BME280;44936;52.086;5.150;2022-10-13T01:53:41;98840.16;;;11.70;100.00
36726;BME280;44936;52.086;5.150;2022-10-13T01:56:11;98836.19;;;11.58;100.00
36726;BME280;44936;52.086;5.150;2022-10-13T01:58:37;98875.88;;;11.76;100.00
36726;BME280;44936;52.086;5.150;2022-10-13T02:03:56;98886.91;;;11.87;100.00
36726;BME280;44936;52.086;5.150;2022-10-13T02:06:39;98854.25;;;11.68;100.00
36726;BME280;44936;52.086;5.150;2022-10-13T02:09:38;98848.19;;;11.66;100.00
36726;BME280;44936;52.086;5.150;2022-10-13T02:12:08;98874.34;;;11.69;100.00
36726;BME280;44936;52.086;5.150;2022-10-13T02:14:39;98925.53;;;11.83;100.00
36726;BME280;44936;52.086;5.150;2022-10-13T02:17:06;98906.91;;;11.63;100.00
36726;BME280;44936;52.086;5.150;2022-10-13T02:19:33;98936.41;;;11.71;100.00
36726;BME280;44936;52.086;5.150;2022-10-13T02:22:05;98954.25;;;11.89;100.00
36726;BME280;44936;52.086;5.150;2022-10-13T02:24:31;98924.94;;;11.74;100.00
36726;BME280;44936;52.086;5.150;2022-10-13T02:26:58;98964.50;;;11.97;100.00
36726;BME280;44936;52.086;5.150;2022-10-13T02:29:24;98894.28;;;11.74;100.00
36726;BME280;44936;52.086;5.150;2022-10-13T02:31:52;98894.91;;;11.84;100.00
36726;BME280;44936;52.086;5.150;2022-10-13T02:34:19;98885.03;;;11.90;100.00
36726;BME280;44936;52.086;5.150;2022-10-13T02:36:47;98845.88;;;11.83;100.00
36726;BME280;44936;52.086;5.150;2022-10-13T02:39:13;98804.81;;;11.80;100.00
36726;BME280;44936;52.086;5.150;2022-10-13T02:41:39;98822.94;;;11.88;100.00
36726;BME280;44936;52.086;5.150;2022-10-13T02:44:05;98843.00;;;11.90;100.00
36726;BME280;44936;52.086;5.150;2022-10-13T02:46:31;98852.97;;;11.81;100.00
36726;BME280;44936;52.086;5.150;2022-10-13T02:48:57;98813.25;;;11.63;100.00
36726;BME280;44936;52.086;5.150;2022-10-13T02:51:22;98793.69;;;11.72;100.00
36726;BME280;44936;52.086;5.150;2022-10-13T02:53:48;98782.31;;;11.72;100.00
36726;BME280;44936;52.086;5.150;2022-10-13T02:56:15;98776.53;;;11.88;100.00
36726;BME280;44936;52.086;5.150;2022-10-13T02:58:43;98716.88;;;11.66;100.00
36726;BME280;44936;52.086;5.150;2022-10-13T03:01:14;98737.19;;;11.87;100.00
36726;BME280;44936;52.086;5.150;2022-10-13T03:03:40;98683.78;;;11.61;100.00
36726;BME280;44936;52.086;5.150;2022-10-13T03:06:06;98680.25;;;11.62;100.00
36726;BME280;44936;52.086;5.150;2022-10-13T03:08:33;98721.41;;;11.87;100.00
36726;BME280;44936;52.086;5.150;2022-10-13T03:11:01;98689.44;;;11.74;100.00
36726;BME280;44936;52.086;5.150;2022-10-13T03:13:27;98697.72;;;11.88;100.00
36726;BME280;44936;52.086;5.150;2022-10-13T03:15:55;98624.13;;;11.65;100.00
36726;BME280;44936;52.086;5.150;2022-10-13T03:18:23;98605.38;;;11.76;100.00
36726;BME280;44936;52.086;5.150;2022-10-13T03:21:00;98572.94;;;11.77;100.00
36726;BME280;44936;52.086;5.150;2022-10-13T03:23:33;98549.53;;;11.71;100.00
36726;BME280;44936;52.086;5.150;2022-10-13T03:26:02;98566.16;;;11.95;100.00
36726;BME280;44936;52.086;5.150;2022-10-13T03:28:28;98542.00;;;11.85;100.00
36726;BME280;44936;52.086;5.150;2022-10-13T03:31:02;98523.63;;;11.85;100.00
36726;BME280;44936;52.086;5.150;2022-10-13T03:33:28;98548.69;;;11.94;100.00
36726;BME280;44936;52.086;5.150;2022-10-13T03:36:03;98515.91;;;11.80;100.00
36726;BME280;44936;52.086;5.150;2022-10-13T03:38:33;98516.41;;;11.90;100.00
36726;BME280;44936;52.086;5.150;2022-10-13T03:41:07;98490.41;;;11.84;100.00
36726;BME280;44936;52.086;5.150;2022-10-13T03:43:45;98480.56;;;11.89;100.00
36726;BME280;44936;52.086;5.150;2022-10-13T03:46:12;98460.25;;;11.71;100.00
36726;BME280;44936;52.086;5.150;2022-10-13T03:48:39;98496.00;;;11.97;100.00
36726;BME280;44936;52.086;5.150;2022-10-13T03:51:20;98478.56;;;11.72;100.00
36726;BME280;44936;52.086;5.150;2022-10-13T03:53:47;98478.63;;;11.71;100.00
36726;BME280;44936;52.086;5.150;2022-10-13T03:56:14;98479.41;;;11.73;100.00
36726;BME280;44936;52.086;5.150;2022-10-13T03:58:40;98500.56;;;11.70;100.00
36726;BME280;44936;52.086;5.150;2022-10-13T04:01:07;98496.16;;;11.70;100.00
36726;BME280;44936;52.086;5.150;2022-10-13T04:03:47;98490.59;;;11.78;100.00
36726;BME280;44936;52.086;5.150;2022-10-13T04:06:12;98479.78;;;11.87;100.00
36726;BME280;44936;52.086;5.150;2022-10-13T04:08:41;98473.59;;;11.88;100.00
36726;BME280;44936;52.086;5.150;2022-10-13T04:11:11;98459.09;;;11.78;100.00
36726;BME280;44936;52.086;5.150;2022-10-13T04:13:41;98460.00;;;11.77;100.00
36726;BME280;44936;52.086;5.150;2022-10-13T04:16:20;98477.84;;;11.90;100.00
36726;BME280;44936;52.086;5.150;2022-10-13T04:18:59;98469.13;;;11.90;100.00
36726;BME280;44936;52.086;5.150;2022-10-13T04:21:26;98488.84;;;12.00;100.00
36726;BME280;44936;52.086;5.150;2022-10-13T04:23:56;98449.59;;;11.74;100.00
36726;BME280;44936;52.086;5.150;2022-10-13T04:26:22;98484.78;;;11.93;100.00
36726;BME280;44936;52.086;5.150;2022-10-13T04:28:51;98444.31;;;11.75;100.00
36726;BME280;44936;52.086;5.150;2022-10-13T04:31:18;98442.53;;;11.76;100.00
36726;BME280;44936;52.086;5.150;2022-10-13T04:33:50;98446.81;;;11.78;100.00
36726;BME280;44936;52.086;5.150;2022-10-13T04:36:19;98457.97;;;11.85;100.00
36726;BME280;44936;52.086;5.150;2022-10-13T04:38:44;98420.00;;;11.70;100.00
36726;BME280;44936;52.086;5.150;2022-10-13T04:41:11;98422.44;;;11.75;100.00
36726;BME280;44936;52.086;5.150;2022-10-13T04:43:39;98418.91;;;11.76;100.00
36726;BME280;44936;52.086;5.150;2022-10-13T04:46:16;98421.97;;;11.87;100.00
36726;BME280;44936;52.086;5.150;2022-10-13T04:48:43;98394.28;;;11.78;100.00
36726;BME280;44936;52.086;5.150;2022-10-13T04:51:11;98407.78;;;11.91;100.00
36726;BME280;44936;52.086;5.150;2022-10-13T04:53:37;98431.88;;;12.02;100.00
36726;BME280;44936;52.086;5.150;2022-10-13T04:56:05;98407.63;;;11.96;100.00
36726;BME280;44936;52.086;5.150;2022-10-13T04:58:34;98401.81;;;11.87;100.00
36726;BME280;44936;52.086;5.150;2022-10-13T05:01:01;98423.78;;;12.07;100.00
36726;BME280;44936;52.086;5.150;2022-10-13T05:03:28;98406.16;;;12.09;100.00
36726;BME280;44936;52.086;5.150;2022-10-13T05:05:53;98381.94;;;12.02;100.00
36726;BME280;44936;52.086;5.150;2022-10-13T05:08:20;98379.56;;;11.96;100.00
36726;BME280;44936;52.086;5.150;2022-10-13T05:10:57;98380.50;;;11.95;100.00
36726;BME280;44936;52.086;5.150;2022-10-13T05:13:24;98394.25;;;12.02;100.00
36726;BME280;44936;52.086;5.150;2022-10-13T05:15:50;98424.78;;;12.04;100.00
36726;BME280;44936;52.086;5.150;2022-10-13T05:18:15;98379.03;;;11.88;100.00
36726;BME280;44936;52.086;5.150;2022-10-13T05:20:41;98384.03;;;11.94;100.00
36726;BME280;44936;52.086;5.150;2022-10-13T05:23:06;98417.16;;;12.18;100.00
36726;BME280;44936;52.086;5.150;2022-10-13T05:25:33;98339.38;;;11.94;100.00
36726;BME280;44936;52.086;5.150;2022-10-13T05:28:07;98369.53;;;12.06;100.00
36726;BME280;44936;52.086;5.150;2022-10-13T05:30:39;98360.78;;;12.05;100.00
36726;BME280;44936;52.086;5.150;2022-10-13T05:33:06;98349.94;;;11.93;100.00
36726;BME280;44936;52.086;5.150;2022-10-13T05:35:34;98393.25;;;12.04;100.00
36726;BME280;44936;52.086;5.150;2022-10-13T05:37:59;98374.69;;;11.87;100.00
36726;BME280;44936;52.086;5.150;2022-10-13T05:40:29;98388.63;;;11.89;100.00
36726;BME280;44936;52.086;5.150;2022-10-13T05:42:55;98422.38;;;12.20;100.00
36726;BME280;44936;52.086;5.150;2022-10-13T05:45:20;98410.06;;;12.21;100.00
36726;BME280;44936;52.086;5.150;2022-10-13T05:47:50;98347.91;;;11.99;100.00
36726;BME280;44936;52.086;5.150;2022-10-13T05:50:26;98368.75;;;12.24;100.00
36726;BME280;44936;52.086;5.150;2022-10-13T05:52:56;98312.13;;;11.97;100.00
36726;BME280;44936;52.086;5.150;2022-10-13T05:55:21;98336.75;;;12.14;100.00
36726;BME280;44936;52.086;5.150;2022-10-13T05:57:48;98293.81;;;11.95;100.00
36726;BME280;44936;52.086;5.150;2022-10-13T06:00:17;98328.19;;;12.09;100.00
36726;BME280;44936;52.086;5.150;2022-10-13T06:02:50;98346.88;;;12.24;100.00
36726;BME280;44936;52.086;5.150;2022-10-13T06:05:23;98331.63;;;12.11;100.00
36726;BME280;44936;52.086;5.150;2022-10-13T06:07:59;98281.59;;;11.94;100.00
36726;BME280;44936;52.086;5.150;2022-10-13T06:10:25;98302.97;;;12.26;100.00
36726;BME280;44936;52.086;5.150;2022-10-13T06:12:50;98237.56;;;11.99;100.00
36726;BME280;44936;52.086;5.150;2022-10-13T06:15:16;98213.16;;;11.97;100.00
36726;BME280;44936;52.086;5.150;2022-10-13T06:17:44;98233.28;;;12.17;100.00
36726;BME280;44936;52.086;5.150;2022-10-13T06:20:15;98212.84;;;12.24;100.00
36726;BME280;44936;52.086;5.150;2022-10-13T06:22:41;98165.72;;;12.19;100.00
36726;BME280;44936;52.086;5.150;2022-10-13T06:25:08;98112.25;;;12.01;100.00
36726;BME280;44936;52.086;5.150;2022-10-13T06:27:40;98088.56;;;12.03;100.00
36726;BME280;44936;52.086;5.150;2022-10-13T06:30:10;98135.41;;;12.31;100.00
36726;BME280;44936;52.086;5.150;2022-10-13T06:32:38;98106.03;;;12.23;100.00
36726;BME280;44936;52.086;5.150;2022-10-13T06:35:04;98077.97;;;12.04;100.00
36726;BME280;44936;52.086;5.150;2022-10-13T06:37:34;98074.44;;;12.05;100.00
36726;BME280;44936;52.086;5.150;2022-10-13T06:40:08;98088.22;;;12.10;100.00
36726;BME280;44936;52.086;5.150;2022-10-13T06:42:38;98071.81;;;12.05;100.00
36726;BME280;44936;52.086;5.150;2022-10-13T06:45:04;98083.94;;;12.08;100.00
36726;BME280;44936;52.086;5.150;2022-10-13T06:47:40;98097.97;;;12.26;100.00
36726;BME280;44936;52.086;5.150;2022-10-13T06:50:11;98113.19;;;12.38;100.00
36726;BME280;44936;52.086;5.150;2022-10-13T06:52:39;98105.84;;;12.26;100.00
36726;BME280;44936;52.086;5.150;2022-10-13T06:55:08;98101.69;;;12.22;100.00
36726;BME280;44936;52.086;5.150;2022-10-13T06:57:37;98141.94;;;12.41;100.00
36726;BME280;44936;52.086;5.150;2022-10-13T07:00:06;98088.91;;;12.14;100.00
36726;BME280;44936;52.086;5.150;2022-10-13T07:02:31;98099.34;;;12.15;100.00
36726;BME280;44936;52.086;5.150;2022-10-13T07:05:03;98106.03;;;12.23;100.00
36726;BME280;44936;52.086;5.150;2022-10-13T07:07:29;98089.59;;;12.17;100.00
36726;BME280;44936;52.086;5.150;2022-10-13T07:09:54;98092.50;;;12.30;100.00
36726;BME280;44936;52.086;5.150;2022-10-13T07:12:23;98089.66;;;12.35;100.00
36726;BME280;44936;52.086;5.150;2022-10-13T07:15:04;98061.19;;;12.26;100.00
36726;BME280;44936;52.086;5.150;2022-10-13T07:17:29;98107.16;;;12.53;100.00
36726;BME280;44936;52.086;5.150;2022-10-13T07:19:56;98079.50;;;12.46;100.00
36726;BME280;44936;52.086;5.150;2022-10-13T07:22:22;98045.91;;;12.34;100.00
36726;BME280;44936;52.086;5.150;2022-10-13T07:24:49;98052.31;;;12.45;100.00
36726;BME280;44936;52.086;5.150;2022-10-13T07:27:16;98019.81;;;12.48;100.00
36726;BME280;44936;52.086;5.150;2022-10-13T07:29:41;97987.16;;;12.52;100.00
36726;BME280;44936;52.086;5.150;2022-10-13T07:32:09;97961.50;;;12.57;100.00
36726;BME280;44936;52.086;5.150;2022-10-13T07:34:37;97930.16;;;12.70;100.00
36726;BME280;44936;52.086;5.150;2022-10-13T07:37:05;97877.97;;;12.45;100.00
36726;BME280;44936;52.086;5.150;2022-10-13T07:39:31;97897.47;;;12.58;100.00
36726;BME280;44936;52.086;5.150;2022-10-13T07:41:56;97873.34;;;12.50;100.00
36726;BME280;44936;52.086;5.150;2022-10-13T07:44:25;97921.56;;;12.84;100.00
36726;BME280;44936;52.086;5.150;2022-10-13T07:46:53;97878.88;;;12.61;100.00
36726;BME280;44936;52.086;5.150;2022-10-13T07:49:18;97918.16;;;12.82;100.00
36726;BME280;44936;52.086;5.150;2022-10-13T07:51:49;97903.41;;;12.62;100.00
36726;BME280;44936;52.086;5.150;2022-10-13T07:54:14;97936.41;;;12.85;100.00
36726;BME280;44936;52.086;5.150;2022-10-13T07:56:43;97935.72;;;12.81;100.00
36726;BME280;44936;52.086;5.150;2022-10-13T07:59:08;97966.25;;;13.01;100.00
36726;BME280;44936;52.086;5.150;2022-10-13T08:01:37;97926.09;;;12.80;100.00
36726;BME280;44936;52.086;5.150;2022-10-13T08:04:05;97981.00;;;13.03;100.00
36726;BME280;44936;52.086;5.150;2022-10-13T08:06:34;98004.28;;;13.11;100.00
36726;BME280;44936;52.086;5.150;2022-10-13T08:08:59;97966.63;;;12.93;100.00
36726;BME280;44936;52.086;5.150;2022-10-13T08:11:28;98031.69;;;13.24;100.00
36726;BME280;44936;52.086;5.150;2022-10-13T08:13:53;98006.47;;;13.03;100.00
36726;BME280;44936;52.086;5.150;2022-10-13T08:16:20;98018.59;;;13.05;100.00
36726;BME280;44936;52.086;5.150;2022-10-13T08:18:49;98081.84;;;13.39;100.00
36726;BME280;44936;52.086;5.150;2022-10-13T08:21:16;98064.38;;;13.20;100.00
36726;BME280;44936;52.086;5.150;2022-10-13T08:23:46;98103.22;;;13.32;100.00
36726;BME280;44936;52.086;5.150;2022-10-13T08:26:17;98168.72;;;13.56;100.00
36726;BME280;44936;52.086;5.150;2022-10-13T08:28:44;98171.72;;;13.31;100.00
36726;BME280;44936;52.086;5.150;2022-10-13T08:31:13;98210.22;;;13.51;100.00
36726;BME280;44936;52.086;5.150;2022-10-13T08:33:43;98221.75;;;13.48;100.00
36726;BME280;44936;52.086;5.150;2022-10-13T08:36:15;98260.03;;;13.55;100.00
36726;BME280;44936;52.086;5.150;2022-10-13T08:38:42;98256.28;;;13.42;100.00
36726;BME280;44936;52.086;5.150;2022-10-13T08:41:32;98282.31;;;13.48;100.00
36726;BME280;44936;52.086;5.150;2022-10-13T08:44:34;98375.53;;;13.63;100.00
36726;BME280;44936;52.086;5.150;2022-10-13T08:50:14;98403.38;;;13.50;100.00
36726;BME280;44936;52.086;5.150;2022-10-13T08:52:52;98482.00;;;13.76;100.00
36726;BME280;44936;52.086;5.150;2022-10-13T08:55:46;98496.53;;;13.66;100.00
36726;BME280;44936;52.086;5.150;2022-10-13T08:58:19;98511.91;;;13.75;100.00
36726;BME280;44936;52.086;5.150;2022-10-13T09:00:45;98533.00;;;13.75;100.00
36726;BME280;44936;52.086;5.150;2022-10-13T09:03:53;98551.44;;;13.75;100.00
36726;BME280;44936;52.086;5.150;2022-10-13T09:06:25;98535.84;;;13.52;100.00
36726;BME280;44936;52.086;5.150;2022-10-13T09:09:02;98539.47;;;13.68;100.00
36726;BME280;44936;52.086;5.150;2022-10-13T09:11:51;98531.22;;;13.57;100.00
36726;BME280;44936;52.086;5.150;2022-10-13T09:14:22;98521.34;;;13.62;100.00
36726;BME280;44936;52.086;5.150;2022-10-13T09:16:50;98528.09;;;13.68;100.00
36726;BME280;44936;52.086;5.150;2022-10-13T09:19:21;98525.88;;;13.77;100.00
36726;BME280;44936;52.086;5.150;2022-10-13T09:21:52;98483.03;;;13.55;100.00
36726;BME280;44936;52.086;5.150;2022-10-13T09:24:22;98484.66;;;13.57;100.00
36726;BME280;44936;52.086;5.150;2022-10-13T09:27:02;98472.50;;;13.55;100.00
36726;BME280;44936;52.086;5.150;2022-10-13T09:29:28;98476.06;;;13.54;100.00
36726;BME280;44936;52.086;5.150;2022-10-13T09:32:15;98496.31;;;13.89;100.00
36726;BME280;44936;52.086;5.150;2022-10-13T09:34:51;98473.69;;;13.67;100.00
36726;BME280;44936;52.086;5.150;2022-10-13T09:37:24;98527.22;;;13.86;100.00
36726;BME280;44936;52.086;5.150;2022-10-13T09:40:20;98524.66;;;13.84;100.00
36726;BME280;44936;52.086;5.150;2022-10-13T09:42:50;98549.97;;;13.88;100.00
36726;BME280;44936;52.086;5.150;2022-10-13T09:45:20;98572.03;;;14.05;100.00
36726;BME280;44936;52.086;5.150;2022-10-13T09:48:06;98605.94;;;14.31;100.00
36726;BME280;44936;52.086;5.150;2022-10-13T09:50:37;98587.78;;;14.06;100.00
36726;BME280;44936;52.086;5.150;2022-10-13T09:53:25;98656.38;;;14.42;100.00
36726;BME280;44936;52.086;5.150;2022-10-13T09:56:35;98641.53;;;14.21;100.00
36726;BME280;44936;52.086;5.150;2022-10-13T09:59:21;98707.22;;;14.46;100.00
36726;BME280;44936;52.086;5.150;2022-10-13T10:01:50;98721.28;;;14.26;100.00
36726;BME280;44936;52.086;5.150;2022-10-13T10:07:24;98783.81;;;14.43;100.00
36726;BME280;44936;52.086;5.150;2022-10-13T10:10:10;98804.69;;;14.49;100.00
36726;BME280;44936;52.086;5.150;2022-10-13T10:12:40;98844.28;;;14.68;100.00
36726;BME280;44936;52.086;5.150;2022-10-13T10:15:25;98836.72;;;14.60;100.00
36726;BME280;44936;52.086;5.150;2022-10-13T10:17:57;98823.06;;;14.51;100.00
36726;BME280;44936;52.086;5.150;2022-10-13T10:25:51;98878.13;;;14.58;100.00
36726;BME280;44936;52.086;5.150;2022-10-13T10:28:48;98906.56;;;14.91;100.00
36726;BME280;44936;52.086;5.150;2022-10-13T10:37:16;98953.22;;;14.90;100.00
36726;BME280;44936;52.086;5.150;2022-10-13T10:45:27;98974.91;;;14.58;100.00
36726;BME280;44936;52.086;5.150;2022-10-13T10:48:10;98989.50;;;14.65;100.00
36726;BME280;44936;52.086;5.150;2022-10-13T10:50:40;98994.53;;;14.71;100.00
36726;BME280;44936;52.086;5.150;2022-10-13T10:53:17;99008.00;;;14.85;100.00
36726;BME280;44936;52.086;5.150;2022-10-13T10:55:53;98987.81;;;14.64;100.00
36726;BME280;44936;52.086;5.150;2022-10-13T10:58:58;99011.03;;;14.96;100.00
36726;BME280;44936;52.086;5.150;2022-10-13T11:01:42;98972.69;;;14.88;100.00
36726;BME280;44936;52.086;5.150;2022-10-13T11:12:22;98967.66;;;15.02;100.00
36726;BME280;44936;52.086;5.150;2022-10-13T11:15:15;98957.81;;;15.06;100.00
36726;BME280;44936;52.086;5.150;2022-10-13T11:17:45;98939.09;;;14.91;100.00
36726;BME280;44936;52.086;5.150;2022-10-13T11:25:40;99020.50;;;15.21;100.00
36726;BME280;44936;52.086;5.150;2022-10-13T11:28:48;99043.47;;;15.19;100.00
36726;BME280;44936;52.086;5.150;2022-10-13T11:36:30;99102.91;;;15.29;100.00
36726;BME280;44936;52.086;5.150;2022-10-13T11:44:55;99096.03;;;15.25;100.00
36726;BME280;44936;52.086;5.150;2022-10-13T11:53:13;99082.28;;;15.17;100.00
36726;BME280;44936;52.086;5.150;2022-10-13T11:55:49;99075.44;;;15.13;100.00
36726;BME280;44936;52.086;5.150;2022-10-13T11:58:22;99045.75;;;14.87;100.00
36726;BME280;44936;52.086;5.150;2022-10-13T12:01:11;99073.84;;;15.09;100.00
36726;BME280;44936;52.086;5.150;2022-10-13T12:03:42;99020.34;;;14.85;100.00
36726;BME280;44936;52.086;5.150;2022-10-13T12:08:45;99044.56;;;14.94;100.00
36726;BME280;44936;52.086;5.150;2022-10-13T12:11:23;99002.66;;;14.87;100.00
36726;BME280;44936;52.086;5.150;2022-10-13T12:13:56;99049.16;;;15.10;100.00
36726;BME280;44936;52.086;5.150;2022-10-13T12:16:22;99050.06;;;15.09;100.00
36726;BME280;44936;52.086;5.150;2022-10-13T12:18:50;99027.66;;;14.98;100.00
36726;BME280;44936;52.086;5.150;2022-10-13T12:21:21;98999.41;;;14.80;100.00
36726;BME280;44936;52.086;5.150;2022-10-13T12:23:48;99000.28;;;14.81;100.00
36726;BME280;44936;52.086;5.150;2022-10-13T12:26:19;99027.72;;;14.97;100.00
36726;BME280;44936;52.086;5.150;2022-10-13T12:28:56;99001.97;;;14.82;100.00
36726;BME280;44936;52.086;5.150;2022-10-13T12:31:46;99052.88;;;15.06;100.00
36726;BME280;44936;52.086;5.150;2022-10-13T12:36:54;99037.06;;;14.84;100.00
36726;BME280;44936;52.086;5.150;2022-10-13T12:39:20;99034.91;;;14.73;100.00
36726;BME280;44936;52.086;5.150;2022-10-13T12:41:53;99084.94;;;14.96;100.00
36726;BME280;44936;52.086;5.150;2022-10-13T12:44:26;99059.09;;;14.84;100.00
36726;BME280;44936;52.086;5.150;2022-10-13T12:46:55;99071.22;;;14.88;100.00
36726;BME280;44936;52.086;5.150;2022-10-13T12:49:36;99014.72;;;14.72;100.00
36726;BME280;44936;52.086;5.150;2022-10-13T12:52:13;99004.25;;;14.70;100.00
36726;BME280;44936;52.086;5.150;2022-10-13T12:54:47;99006.03;;;14.70;100.00
36726;BME280;44936;52.086;5.150;2022-10-13T12:57:21;99022.88;;;14.66;100.00
36726;BME280;44936;52.086;5.150;2022-10-13T13:00:28;99019.59;;;14.61;100.00
36726;BME280;44936;52.086;5.150;2022-10-13T13:02:56;99054.44;;;14.69;100.00
36726;BME280;44936;52.086;5.150;2022-10-13T13:05:41;99027.53;;;14.61;100.00
36726;BME280;44936;52.086;5.150;2022-10-13T13:08:29;98996.03;;;14.56;100.00
36726;BME280;44936;52.086;5.150;2022-10-13T13:11:00;99025.94;;;14.77;100.00
36726;BME280;44936;52.086;5.150;2022-10-13T13:13:48;99019.06;;;14.73;100.00
36726;BME280;44936;52.086;5.150;2022-10-13T13:16:17;99002.91;;;14.81;100.00
36726;BME280;44936;52.086;5.150;2022-10-13T13:18:52;98992.91;;;14.68;100.00
36726;BME280;44936;52.086;5.150;2022-10-13T13:21:18;98983.66;;;14.58;100.00
36726;BME280;44936;52.086;5.150;2022-10-13T13:23:49;99017.91;;;14.60;100.00
36726;BME280;44936;52.086;5.150;2022-10-13T13:26:17;99045.22;;;14.79;100.00
36726;BME280;44936;52.086;5.150;2022-10-13T13:28:48;98994.78;;;14.65;100.00
36726;BME280;44936;52.086;5.150;2022-10-13T13:31:15;99004.16;;;14.72;100.00
36726;BME280;44936;52.086;5.150;2022-10-13T13:33:43;99032.41;;;14.90;100.00
36726;BME280;44936;52.086;5.150;2022-10-13T13:36:17;98997.25;;;14.69;100.00
36726;BME280;44936;52.086;5.150;2022-10-13T13:38:46;99048.63;;;14.81;100.00
36726;BME280;44936;52.086;5.150;2022-10-13T13:41:12;99044.09;;;14.85;100.00
36726;BME280;44936;52.086;5.150;2022-10-13T13:43:38;99022.50;;;14.75;100.00
36726;BME280;44936;52.086;5.150;2022-10-13T13:46:05;99000.69;;;14.71;100.00
36726;BME280;44936;52.086;5.150;2022-10-13T13:48:32;98982.28;;;14.70;100.00
36726;BME280;44936;52.086;5.150;2022-10-13T13:51:01;99002.06;;;14.80;100.00
36726;BME280;44936;52.086;5.150;2022-10-13T13:53:35;99035.81;;;14.92;100.00
36726;BME280;44936;52.086;5.150;2022-10-13T13:56:02;99007.72;;;14.71;100.00
36726;BME280;44936;52.086;5.150;2022-10-13T13:58:27;99022.25;;;14.81;100.00
36726;BME280;44936;52.086;5.150;2022-10-13T14:00:53;99031.63;;;14.68;100.00
36726;BME280;44936;52.086;5.150;2022-10-13T14:03:19;99025.34;;;14.70;100.00
36726;BME280;44936;52.086;5.150;2022-10-13T14:05:47;99024.81;;;14.62;100.00
36726;BME280;44936;52.086;5.150;2022-10-13T14:08:15;99035.75;;;14.53;100.00
36726;BME280;44936;52.086;5.150;2022-10-13T14:10:52;99041.66;;;14.60;100.00
36726;BME280;44936;52.086;5.150;2022-10-13T14:16:59;99026.19;;;14.51;100.00
36726;BME280;44936;52.086;5.150;2022-10-13T14:19:30;99023.66;;;14.48;100.00
36726;BME280;44936;52.086;5.150;2022-10-13T14:21:56;99024.88;;;14.61;100.00
36726;BME280;44936;52.086;5.150;2022-10-13T14:24:32;98987.94;;;14.61;100.00
36726;BME280;44936;52.086;5.150;2022-10-13T14:26:57;98957.84;;;14.44;100.00
36726;BME280;44936;52.086;5.150;2022-10-13T14:29:23;98969.09;;;14.50;100.00
36726;BME280;44936;52.086;5.150;2022-10-13T14:31:56;98954.16;;;14.49;100.00
36726;BME280;44936;52.086;5.150;2022-10-13T14:34:22;98943.88;;;14.63;100.00